createdAt,value
2023-01-10T00:01:57.141Z,6.95
2023-01-10T00:04:26.545Z,5.72
2023-01-10T00:06:53.152Z,2.10
2023-01-10T00:09:19.704Z,4.93
2023-01-10T00:12:04.836Z,6.43
2023-01-10T00:14:34.950Z,6.07
2023-01-10T00:17:03.036Z,4.78
2023-01-10T00:19:29.909Z,8.65
2023-01-10T00:22:05.687Z,5.10
2023-01-10T00:24:32.230Z,5.95
2023-01-10T00:26:59.365Z,10.23
2023-01-10T00:29:28.934Z,6.50
2023-01-10T00:31:55.729Z,7.57
2023-01-10T00:34:22.729Z,6.88
2023-01-10T00:36:49.584Z,8.63
2023-01-10T00:39:18.575Z,8.95
2023-01-10T00:42:03.710Z,7.90
2023-01-10T00:44:30.902Z,10.15
2023-01-10T00:46:57.535Z,6.95
2023-01-10T00:49:24.089Z,7.40
2023-01-10T00:51:50.918Z,6.38
2023-01-10T00:54:17.541Z,7.95
2023-01-10T00:56:44.180Z,8.05
2023-01-10T00:59:10.743Z,8.30
2023-01-10T01:01:37.371Z,7.05
2023-01-10T01:04:04.240Z,10.65
2023-01-10T01:06:30.857Z,6.88
2023-01-10T01:08:57.463Z,6.45
2023-01-10T01:11:24.669Z,10.25
2023-01-10T01:13:51.738Z,6.72
2023-01-10T01:16:18.523Z,6.93
2023-01-10T01:18:45.160Z,6.28
2023-01-10T01:21:11.688Z,6.45
2023-01-10T01:23:38.281Z,5.10
2023-01-10T01:26:06.245Z,7.88
2023-01-10T01:28:33.156Z,9.88
2023-01-10T01:30:59.809Z,10.50
2023-01-10T01:33:26.523Z,6.18
2023-01-10T01:35:53.111Z,3.72
2023-01-10T01:38:19.788Z,8.18
2023-01-10T01:40:46.403Z,12.02
2023-01-10T01:43:34.402Z,10.50
2023-01-10T01:46:03.587Z,4.70
2023-01-10T01:48:33.264Z,4.68
2023-01-10T01:51:20.597Z,14.70
2023-01-10T01:53:50.862Z,4.57
2023-01-10T01:56:30.454Z,8.00
2023-01-10T01:59:00.013Z,4.80
2023-01-10T02:01:28.511Z,6.78
2023-01-10T02:04:02.973Z,3.63
2023-01-10T02:06:29.937Z,11.35
2023-01-10T02:09:10.187Z,13.18
2023-01-10T02:11:36.838Z,4.38
2023-01-10T02:14:06.333Z,7.45
2023-01-10T02:16:33.008Z,8.52
2023-01-10T02:18:59.858Z,11.20
2023-01-10T02:21:31.238Z,11.75
2023-01-10T02:24:24.063Z,10.93
2023-01-10T02:27:10.193Z,5.00
2023-01-10T02:29:49.214Z,5.65
2023-01-10T02:32:43.782Z,7.85
2023-01-10T02:35:33.763Z,8.40
2023-01-10T02:38:05.558Z,5.95
2023-01-10T02:40:55.193Z,6.57
2023-01-10T02:43:26.596Z,5.68
2023-01-10T02:46:18.207Z,6.85
2023-01-10T02:48:44.844Z,7.30
2023-01-10T02:51:18.563Z,4.65
2023-01-10T02:53:52.303Z,8.23
2023-01-10T02:56:40.873Z,10.38
2023-01-10T02:59:26.369Z,4.35
2023-01-10T03:02:13.964Z,8.10
2023-01-10T03:05:00.856Z,6.47
2023-01-10T03:07:50.867Z,7.15
2023-01-10T03:10:28.800Z,10.23
2023-01-10T03:13:07.594Z,6.97
2023-01-10T03:15:38.128Z,7.97
2023-01-10T03:18:12.844Z,6.30
2023-01-10T03:20:44.991Z,9.95
2023-01-10T03:23:13.301Z,4.40
2023-01-10T03:25:40.593Z,13.05
2023-01-10T03:28:15.973Z,5.43
2023-01-10T03:31:01.202Z,7.25
2023-01-10T03:33:30.709Z,5.95
2023-01-10T03:36:17.213Z,7.32
2023-01-10T03:38:50.432Z,8.63
2023-01-10T03:41:22.835Z,6.05
2023-01-10T03:44:15.262Z,5.53
2023-01-10T03:47:20.053Z,3.22
2023-01-10T03:49:50.269Z,15.63
2023-01-10T03:52:19.324Z,2.08
2023-01-10T03:54:47.853Z,7.70
2023-01-10T03:57:22.908Z,9.60
2023-01-10T03:59:52.870Z,4.18
2023-01-10T04:02:20.072Z,10.13
2023-01-10T04:04:46.840Z,3.53
2023-01-10T04:07:13.390Z,6.00
2023-01-10T04:09:39.899Z,13.52
2023-01-10T04:12:06.496Z,10.25
2023-01-10T04:14:33.660Z,5.10
2023-01-10T04:17:00.195Z,5.18
2023-01-10T04:19:26.730Z,13.90
2023-01-10T04:21:53.428Z,11.30
2023-01-10T04:24:19.982Z,8.95
2023-01-10T04:26:46.556Z,5.70
2023-01-10T04:29:13.339Z,8.38
2023-01-10T04:31:40.196Z,3.40
2023-01-10T04:34:10.241Z,5.72
2023-01-10T04:36:36.871Z,6.43
2023-01-10T04:39:04.556Z,10.25
2023-01-10T04:41:31.217Z,5.03
2023-01-10T04:43:57.874Z,11.27
2023-01-10T04:46:24.417Z,6.05
2023-01-10T04:48:51.354Z,6.47
2023-01-10T04:51:18.083Z,5.28
2023-01-10T04:53:44.690Z,8.90
2023-01-10T04:56:17.148Z,10.55
2023-01-10T04:58:43.840Z,5.32
2023-01-10T05:01:12.235Z,9.70
2023-01-10T05:03:39.328Z,4.53
2023-01-10T05:06:06.260Z,7.00
2023-01-10T05:08:33.988Z,7.90
2023-01-10T05:11:00.912Z,8.30
2023-01-10T05:13:27.601Z,6.47
2023-01-10T05:15:56.178Z,8.70
2023-01-10T05:18:23.015Z,11.98
2023-01-10T05:20:49.556Z,4.93
2023-01-10T05:23:16.185Z,8.50
2023-01-10T05:25:43.083Z,5.95
2023-01-10T05:28:09.845Z,4.90
2023-01-10T05:30:36.607Z,10.50
2023-01-10T05:33:06.529Z,12.00
2023-01-10T05:35:33.857Z,8.57
2023-01-10T05:38:00.486Z,12.52
2023-01-10T05:40:27.083Z,4.57
2023-01-10T05:42:53.717Z,4.88
2023-01-10T05:45:20.416Z,10.55
2023-01-10T05:47:46.956Z,7.68
2023-01-10T05:50:13.608Z,4.82
2023-01-10T05:52:40.253Z,11.95
2023-01-10T05:55:07.323Z,8.63
2023-01-10T05:57:33.891Z,6.53
2023-01-10T06:00:00.483Z,11.02
2023-01-10T06:02:27.285Z,5.82
2023-01-10T06:04:55.493Z,7.80
2023-01-10T06:07:23.464Z,6.10
2023-01-10T06:09:51.363Z,6.85
2023-01-10T06:12:21.205Z,3.05
2023-01-10T06:14:47.843Z,12.57
2023-01-10T06:17:14.354Z,8.50
2023-01-10T06:19:40.987Z,6.95
2023-01-10T06:22:07.520Z,6.65
2023-01-10T06:24:34.311Z,14.00
2023-01-10T06:27:00.962Z,11.38
2023-01-10T06:29:27.525Z,8.93
2023-01-10T06:31:54.126Z,7.80
2023-01-10T06:34:20.837Z,10.88
2023-01-10T06:36:47.471Z,6.88
2023-01-10T06:39:14.104Z,9.10
2023-01-10T06:41:40.707Z,7.55
2023-01-10T06:44:07.503Z,10.80
2023-01-10T06:46:34.116Z,11.35
2023-01-10T06:49:01.220Z,7.75
2023-01-10T06:51:27.739Z,9.40
2023-01-10T06:53:54.331Z,11.20
2023-01-10T06:56:20.843Z,20.20
2023-01-10T06:58:49.301Z,7.63
2023-01-10T07:01:18.876Z,11.25
2023-01-10T07:03:45.739Z,12.38
2023-01-10T07:06:12.679Z,9.45
2023-01-10T07:08:41.458Z,6.50
2023-01-10T07:11:09.345Z,4.07
2023-01-10T07:13:36.227Z,7.70
2023-01-10T07:16:05.074Z,14.63
2023-01-10T07:18:33.520Z,11.57
2023-01-10T07:21:00.088Z,9.50
2023-01-10T07:23:26.737Z,13.25
2023-01-10T07:25:53.336Z,6.57
2023-01-10T07:28:19.907Z,4.60
2023-01-10T07:30:46.424Z,12.05
2023-01-10T07:33:13.021Z,12.32
2023-01-10T07:35:39.550Z,19.67
2023-01-10T07:38:06.161Z,7.53
2023-01-10T07:40:32.752Z,7.93
2023-01-10T07:43:01.294Z,9.13
2023-01-10T07:45:29.019Z,13.73
2023-01-10T07:48:00.324Z,10.70
2023-01-10T07:50:28.853Z,16.30
2023-01-10T07:52:55.955Z,11.00
2023-01-10T07:55:22.527Z,15.68
2023-01-10T07:57:52.310Z,4.25
2023-01-10T08:00:19.776Z,10.27
2023-01-10T08:02:46.974Z,10.55
2023-01-10T08:05:14.386Z,18.60
2023-01-10T08:07:40.882Z,20.42
2023-01-10T08:10:08.360Z,17.98
2023-01-10T08:12:35.370Z,5.53
2023-01-10T08:15:02.139Z,14.77
2023-01-10T08:17:28.769Z,10.00
2023-01-10T08:19:56.155Z,9.15
2023-01-10T08:22:23.273Z,12.43
2023-01-10T08:24:49.997Z,10.45
2023-01-10T08:27:16.628Z,10.27
2023-01-10T08:29:43.296Z,10.45
2023-01-10T08:32:10.081Z,11.10
2023-01-10T08:34:36.980Z,13.73
2023-01-10T08:37:03.876Z,16.75
2023-01-10T08:39:30.954Z,5.30
2023-01-10T08:41:57.608Z,7.00
2023-01-10T08:44:24.203Z,8.60
2023-01-10T08:46:50.791Z,11.25
2023-01-10T08:49:17.664Z,6.00
2023-01-10T08:51:44.764Z,15.90
2023-01-10T08:54:11.476Z,15.88
2023-01-10T08:56:40.081Z,20.95
2023-01-10T08:59:07.823Z,11.73
2023-01-10T09:01:34.609Z,15.30
2023-01-10T09:04:01.351Z,8.50
2023-01-10T09:06:27.986Z,14.98
2023-01-10T09:08:54.517Z,16.73
2023-01-10T09:11:21.063Z,16.92
2023-01-10T09:13:51.306Z,20.88
2023-01-10T09:16:18.589Z,27.05
2023-01-10T09:18:45.323Z,13.45
2023-01-10T09:21:11.875Z,22.73
2023-01-10T09:23:39.964Z,16.83
2023-01-10T09:26:06.953Z,22.48
2023-01-10T09:28:33.710Z,17.02
2023-01-10T09:31:01.171Z,17.50
2023-01-10T09:33:34.953Z,14.90
2023-01-10T09:36:13.580Z,18.52
2023-01-10T09:38:40.067Z,15.80
2023-01-10T09:41:25.115Z,18.85
2023-01-10T09:44:18.923Z,17.70
2023-01-10T09:47:00.807Z,18.20
2023-01-10T09:49:50.557Z,14.13
2023-01-10T09:52:41.915Z,12.10
2023-01-10T09:55:20.576Z,13.35
2023-01-10T09:57:48.369Z,9.80
2023-01-10T10:00:22.569Z,15.32
2023-01-10T10:02:52.649Z,12.73
2023-01-10T10:05:26.571Z,14.15
2023-01-10T10:08:04.956Z,12.85
2023-01-10T10:10:39.343Z,13.70
2023-01-10T10:13:26.983Z,18.80
2023-01-10T10:16:24.261Z,22.52
2023-01-10T10:19:13.193Z,15.57
2023-01-10T10:21:45.934Z,12.55
2023-01-10T10:24:27.795Z,21.63
2023-01-10T10:26:59.320Z,13.07
2023-01-10T10:29:35.993Z,13.23
2023-01-10T10:32:43.268Z,15.77
2023-01-10T10:35:19.389Z,14.88
2023-01-10T10:37:50.298Z,16.27
2023-01-10T10:40:22.408Z,17.92
2023-01-10T10:42:52.647Z,13.35
2023-01-10T10:45:26.748Z,9.25
2023-01-10T10:48:00.188Z,19.77
2023-01-10T10:50:48.423Z,5.63
2023-01-10T10:53:15.128Z,6.20
2023-01-10T10:55:42.113Z,13.93
2023-01-10T10:58:13.343Z,12.90
2023-01-10T11:00:41.326Z,14.23
2023-01-10T11:03:23.194Z,9.60
2023-01-10T11:05:50.155Z,12.07
2023-01-10T11:08:19.664Z,11.20
2023-01-10T11:10:52.777Z,11.85
2023-01-10T11:13:34.386Z,15.38
2023-01-10T11:16:04.148Z,14.57
2023-01-10T11:18:31.376Z,9.05
2023-01-10T11:21:25.357Z,20.08
2023-01-10T11:23:56.793Z,12.25
2023-01-10T11:26:40.545Z,9.02
2023-01-10T11:29:13.740Z,8.32
2023-01-10T11:31:41.411Z,6.43
2023-01-10T11:34:37.760Z,12.48
2023-01-10T11:37:16.304Z,12.40
2023-01-10T11:39:43.432Z,13.95
2023-01-10T11:42:25.241Z,7.68
2023-01-10T11:44:51.806Z,7.05
2023-01-10T11:47:20.766Z,11.85
2023-01-10T11:49:49.624Z,11.43
2023-01-10T11:52:20.350Z,8.40
2023-01-10T11:54:47.649Z,14.32
2023-01-10T11:57:24.656Z,10.48
2023-01-10T11:59:57.761Z,13.77
2023-01-10T12:02:30.337Z,10.05
2023-01-10T12:05:00.678Z,10.65
2023-01-10T12:07:27.925Z,11.43
2023-01-10T12:10:02.689Z,17.83
2023-01-10T12:12:30.404Z,14.60
2023-01-10T12:15:23.005Z,10.68
2023-01-10T12:17:49.857Z,7.85
2023-01-10T12:20:16.578Z,4.80
2023-01-10T12:22:47.387Z,10.02
2023-01-10T12:25:19.410Z,14.55
2023-01-10T12:27:50.249Z,8.98
2023-01-10T12:30:23.411Z,4.18
2023-01-10T12:32:53.559Z,8.60
2023-01-10T12:35:39.466Z,7.32
2023-01-10T12:40:49.583Z,11.45
2023-01-10T12:43:43.872Z,7.63
2023-01-10T12:46:43.582Z,12.60
2023-01-10T12:49:28.894Z,8.23
2023-01-10T12:52:01.844Z,6.22
2023-01-10T12:54:30.311Z,4.25
2023-01-10T12:57:05.780Z,8.98
2023-01-10T13:02:13.279Z,8.82
2023-01-10T13:04:41.442Z,10.25
2023-01-10T13:07:12.288Z,12.55
2023-01-10T13:09:42.468Z,12.75
2023-01-10T13:12:21.188Z,6.00
2023-01-10T13:15:04.261Z,7.30
2023-01-10T13:17:33.856Z,9.32
2023-01-10T13:20:18.473Z,6.72
2023-01-10T13:22:47.936Z,6.88
2023-01-10T13:25:22.250Z,7.88
2023-01-10T13:27:56.862Z,5.82
2023-01-10T13:30:37.233Z,11.90
2023-01-10T13:33:18.364Z,6.88
2023-01-10T13:35:45.367Z,11.85
2023-01-10T13:38:53.530Z,15.02
2023-01-10T13:41:39.330Z,7.53
2023-01-10T13:44:12.128Z,5.45
2023-01-10T13:46:44.139Z,11.25
2023-01-10T13:49:10.807Z,8.20
2023-01-10T13:51:39.659Z,7.25
2023-01-10T13:54:18.371Z,7.93
2023-01-10T13:56:45.700Z,7.63
2023-01-10T13:59:45.873Z,12.30
2023-01-10T14:02:31.862Z,10.93
2023-01-10T14:05:06.719Z,11.43
2023-01-10T14:07:44.462Z,11.02
2023-01-10T14:10:27.755Z,7.07
2023-01-10T14:12:58.968Z,12.13
2023-01-10T14:15:33.997Z,8.85
2023-01-10T14:18:07.334Z,4.28
2023-01-10T14:20:36.385Z,10.27
2023-01-10T14:23:06.349Z,8.27
2023-01-10T14:25:36.200Z,6.78
2023-01-10T14:28:05.239Z,4.07
2023-01-10T14:30:35.762Z,7.95
2023-01-10T14:33:21.407Z,14.23
2023-01-10T14:35:53.042Z,6.05
2023-01-10T14:38:34.141Z,5.65
2023-01-10T14:41:05.402Z,3.22
2023-01-10T14:43:41.633Z,19.98
2023-01-10T14:46:20.418Z,5.32
2023-01-10T14:48:52.133Z,14.30
2023-01-10T14:51:26.190Z,8.52
2023-01-10T14:54:04.308Z,6.80
2023-01-10T14:56:38.917Z,5.10
2023-01-10T14:59:37.874Z,3.83
2023-01-10T15:02:23.567Z,10.00
2023-01-10T15:05:17.771Z,6.22
2023-01-10T15:07:44.363Z,6.53
2023-01-10T15:10:20.369Z,4.63
2023-01-10T15:12:47.827Z,4.13
2023-01-10T15:15:18.924Z,5.20
2023-01-10T15:17:46.210Z,10.20
2023-01-10T15:20:17.555Z,8.05
2023-01-10T15:22:47.992Z,9.70
2023-01-10T15:25:20.531Z,10.48
2023-01-10T15:27:50.109Z,6.20
2023-01-10T15:30:29.142Z,9.57
2023-01-10T15:33:02.224Z,8.82
2023-01-10T15:35:36.143Z,7.00
2023-01-10T15:38:16.147Z,4.97
2023-01-10T15:40:43.828Z,9.25
2023-01-10T15:43:29.108Z,16.00
2023-01-10T15:45:57.355Z,7.32
2023-01-10T15:48:34.693Z,9.80
2023-01-10T15:51:06.724Z,4.50
2023-01-10T15:53:55.440Z,4.07
2023-01-10T15:56:26.710Z,5.35
2023-01-10T15:58:54.677Z,5.68
2023-01-10T16:01:21.609Z,4.20
2023-01-10T16:03:53.728Z,6.70
2023-01-10T16:06:30.037Z,6.93
2023-01-10T16:08:59.768Z,5.40
2023-01-10T16:12:00.148Z,2.45
2023-01-10T16:14:26.745Z,7.22
2023-01-10T16:16:53.296Z,5.00
2023-01-10T16:19:19.861Z,5.70
2023-01-10T16:21:50.654Z,4.95
2023-01-10T16:24:23.235Z,10.32
2023-01-10T16:26:50.836Z,5.68
2023-01-10T16:29:20.505Z,4.50
2023-01-10T16:31:47.291Z,4.07
2023-01-10T16:34:13.876Z,5.38
2023-01-10T16:36:42.930Z,5.97
2023-01-10T16:39:23.211Z,9.00
2023-01-10T16:42:08.698Z,9.05
2023-01-10T16:44:35.998Z,7.13
2023-01-10T16:47:06.437Z,5.13
2023-01-10T16:49:33.626Z,11.40
2023-01-10T16:52:00.357Z,8.93
2023-01-10T16:54:28.071Z,9.88
2023-01-10T16:56:54.913Z,5.13
2023-01-10T16:59:21.528Z,11.77
2023-01-10T17:01:52.809Z,4.88
2023-01-10T17:04:23.327Z,7.70
2023-01-10T17:06:50.594Z,7.32
2023-01-10T17:09:24.321Z,11.40
2023-01-10T17:12:01.818Z,5.60
2023-01-10T17:14:34.823Z,4.88
2023-01-10T17:17:04.713Z,9.55
2023-01-10T17:19:31.682Z,5.47
2023-01-10T17:21:58.350Z,6.13
2023-01-10T17:24:25.003Z,7.68
2023-01-10T17:26:51.728Z,7.93
2023-01-10T17:29:18.332Z,5.47
2023-01-10T17:31:45.051Z,8.07
2023-01-10T17:34:11.803Z,12.55
2023-01-10T17:36:42.603Z,5.47
2023-01-10T17:39:09.414Z,2.25
2023-01-10T17:41:35.951Z,5.97
2023-01-10T17:44:02.721Z,3.83
2023-01-10T17:46:29.310Z,4.88
2023-01-10T17:48:55.918Z,8.68
2023-01-10T17:51:24.550Z,6.70
2023-01-10T17:53:54.066Z,1.85
2023-01-10T17:56:21.348Z,6.10
2023-01-10T17:58:48.128Z,3.38
2023-01-10T18:01:23.793Z,1.88
2023-01-10T18:03:52.656Z,5.70
2023-01-10T18:06:24.232Z,7.60
2023-01-10T18:08:51.827Z,8.00
2023-01-10T18:11:18.531Z,5.07
2023-01-10T18:13:45.391Z,1.40
2023-01-10T18:16:11.999Z,2.05
2023-01-10T18:18:38.989Z,4.25
2023-01-10T18:21:13.186Z,5.57
2023-01-10T18:23:40.020Z,3.97
2023-01-10T18:26:09.357Z,3.17
2023-01-10T18:28:42.704Z,4.72
2023-01-10T18:31:13.138Z,5.10
2023-01-10T18:33:40.049Z,3.50
2023-01-10T18:36:09.079Z,2.25
2023-01-10T18:38:36.614Z,4.00
2023-01-10T18:41:04.022Z,2.35
2023-01-10T18:43:31.424Z,6.50
2023-01-10T18:46:00.890Z,1.25
2023-01-10T18:48:28.070Z,3.60
2023-01-10T18:50:57.486Z,3.20
2023-01-10T18:53:24.323Z,4.60
2023-01-10T18:55:59.561Z,5.45
2023-01-10T18:58:28.432Z,4.43
2023-01-10T19:00:55.359Z,2.85
2023-01-10T19:03:22.349Z,1.58
2023-01-10T19:05:49.250Z,2.60
2023-01-10T19:08:16.066Z,2.58
2023-01-10T19:11:07.128Z,6.95
2023-01-10T19:13:31.095Z,1.20
2023-01-10T19:16:29.038Z,6.93
2023-01-10T19:18:58.649Z,1.33
2023-01-10T19:21:26.714Z,4.38
2023-01-10T19:23:55.669Z,1.63
2023-01-10T19:26:23.470Z,1.50
2023-01-10T19:28:50.362Z,1.98
2023-01-10T19:31:18.458Z,3.13
2023-01-10T19:33:47.472Z,2.30
2023-01-10T19:36:15.231Z,2.08
2023-01-10T19:38:42.092Z,1.25
2023-01-10T19:41:08.791Z,0.95
2023-01-10T19:43:35.523Z,2.35
2023-01-10T19:46:09.363Z,1.92
2023-01-10T19:48:38.092Z,1.23
2023-01-10T19:51:10.330Z,0.60
2023-01-10T19:53:39.077Z,0.80
2023-01-10T19:56:09.582Z,3.85
2023-01-10T19:58:37.859Z,1.58
2023-01-10T20:01:15.720Z,0.85
2023-01-10T20:03:42.829Z,0.82
2023-01-10T20:06:13.906Z,2.78
2023-01-10T20:08:41.346Z,1.88
2023-01-10T20:11:08.376Z,0.90
2023-01-10T20:13:37.543Z,3.25
2023-01-10T20:16:05.258Z,2.15
2023-01-10T20:18:32.286Z,1.13
2023-01-10T20:20:59.116Z,2.15
2023-01-10T20:23:25.712Z,4.57
2023-01-10T20:26:12.125Z,2.55
2023-01-10T20:28:39.849Z,1.48
2023-01-10T20:31:12.767Z,1.35
2023-01-10T20:33:39.421Z,6.05
2023-01-10T20:36:08.612Z,4.15
2023-01-10T20:38:36.456Z,1.35
2023-01-10T20:41:06.457Z,1.08
2023-01-10T20:43:34.244Z,2.63
2023-01-10T20:46:10.694Z,1.90
2023-01-10T20:48:38.248Z,0.82
2023-01-10T20:51:06.176Z,3.22
2023-01-10T20:53:32.761Z,2.38
2023-01-10T20:56:07.818Z,1.08
2023-01-10T20:58:39.512Z,2.20
2023-01-10T21:01:07.475Z,0.85
2023-01-10T21:03:34.242Z,2.47
2023-01-10T21:06:01.205Z,1.17
2023-01-10T21:08:31.878Z,1.45
2023-01-10T21:10:58.540Z,3.08
2023-01-10T21:13:26.057Z,2.33
2023-01-10T21:15:57.821Z,0.60
2023-01-10T21:18:29.759Z,2.45
2023-01-10T21:20:58.013Z,0.80
2023-01-10T21:23:26.348Z,0.68
2023-01-10T21:25:54.195Z,1.70
2023-01-10T21:28:21.049Z,1.13
2023-01-10T21:30:47.817Z,3.95
2023-01-10T21:33:14.412Z,0.88
2023-01-10T21:35:41.057Z,1.77
2023-01-10T21:38:07.576Z,1.30
2023-01-10T21:40:35.010Z,1.02
2023-01-10T21:43:02.530Z,2.20
2023-01-10T21:45:29.184Z,2.67
2023-01-10T21:47:56.348Z,0.47
2023-01-10T21:50:23.147Z,3.95
2023-01-10T21:52:49.692Z,0.73
2023-01-10T21:55:16.924Z,1.50
2023-01-10T21:57:43.501Z,2.35
2023-01-10T22:00:10.878Z,2.33
2023-01-10T22:02:40.743Z,1.23
2023-01-10T22:05:08.220Z,2.75
2023-01-10T22:07:34.806Z,1.13
2023-01-10T22:10:01.691Z,0.63
2023-01-10T22:12:30.433Z,0.30
2023-01-10T22:14:57.525Z,0.43
2023-01-10T22:17:24.308Z,1.00
2023-01-10T22:19:51.212Z,0.90
2023-01-10T22:22:18.795Z,2.58
2023-01-10T22:24:46.616Z,0.80
2023-01-10T22:27:14.346Z,0.52
2023-01-10T22:29:40.909Z,1.13
2023-01-10T22:32:07.582Z,1.10
2023-01-10T22:34:34.235Z,1.33
2023-01-10T22:37:00.806Z,0.57
2023-01-10T22:39:27.331Z,0.50
2023-01-10T22:41:53.916Z,0.52
2023-01-10T22:44:26.419Z,1.08
2023-01-10T22:46:54.462Z,0.60
2023-01-10T22:49:21.449Z,1.25
2023-01-10T22:51:48.163Z,0.50
2023-01-10T22:54:17.752Z,0.50
2023-01-10T22:56:46.077Z,0.52
2023-01-10T22:59:13.213Z,0.32
2023-01-10T23:01:40.447Z,0.40
2023-01-10T23:04:07.048Z,2.05
2023-01-10T23:06:33.690Z,1.05
2023-01-10T23:09:00.430Z,1.10
2023-01-10T23:11:27.139Z,0.40
2023-01-10T23:13:53.722Z,0.40
2023-01-10T23:16:28.151Z,0.65
2023-01-10T23:18:56.692Z,0.63
2023-01-10T23:21:24.148Z,0.52
2023-01-10T23:23:51.271Z,0.45
2023-01-10T23:26:18.275Z,1.27
2023-01-10T23:28:50.529Z,0.40
2023-01-10T23:31:20.407Z,0.95
2023-01-10T23:33:47.776Z,0.40
2023-01-10T23:36:15.091Z,0.47
2023-01-10T23:38:41.668Z,0.80
2023-01-10T23:41:09.083Z,0.30
2023-01-10T23:43:35.691Z,0.47
2023-01-10T23:46:02.493Z,0.40
2023-01-10T23:48:29.555Z,0.43
2023-01-10T23:50:56.337Z,0.55
2023-01-10T23:53:23.261Z,0.88
2023-01-10T23:55:49.880Z,0.20
2023-01-10T23:58:16.875Z,0.50
